• Join FlightAware (Why Join?)
  • Login
  • US Flag 
01:38AM EDT


 

Airport Tracker/Info


-or-


 

Live Flight TrackerFlight Track Log ✈ EJA829P ✈ 04-Nov-2013 ✈ KJVY - KGRR

Flight Track Log - Related Links

Times and Time Zones

All times are in EST time to prevent confusion due to time zone crossing. See the EJA829P flight status page for this flight to view local times or setup timezone preferences in your user account.

Time Position Orientation Groundspeed Altitude Reporting Facility
EST Latitude Longitude Course Direction KTS MPH feet Rate Location/Type
05:29PM 38.3450 -85.7242 18° North 185 213 27,000  Level Indianapolis Center
05:30PM 38.3981 -85.6925 25° Northeast 251 289 4,100 -9,480 Descending Indianapolis Center
05:31PM 38.4689 -85.6633 18° North 265 305 7,600 3,540 Climbing Indianapolis Center
05:32PM 38.5472 -85.6247 21° North 292 336 11,400 3,360 Climbing Indianapolis Center
05:33PM 38.6392 -85.6228 North 307 353 14,600 2,820 Climbing Indianapolis Center
05:34PM 38.7244 -85.5808 21° North 327 376 17,300 2,160 Climbing Indianapolis Center
05:35PM 38.9170 -85.7134 18° North  Level Estimated
05:35PM 38.8067 -85.5419 20° North 318 366 19,100  Level Indianapolis Center
05:36PM 38.8922 -85.5294 North 317 365 20,800 1,680 Climbing Indianapolis Center
05:37PM 39.0008 -85.5297 360° North 326 375 22,600 1,560 Climbing Indianapolis Center
05:38PM 39.0950 -85.5317 359° North 337 388 24,100 1,260 Climbing Indianapolis Center
05:39PM 39.1900 -85.5300 North 342 394 25,300 1,020 Climbing Indianapolis Center
05:40PM 39.2886 -85.5303 360° North 351 404 26,300 780 Climbing Indianapolis Center
05:42PM 39.3914 -85.5303 360° North 363 418 27,000 300 Climbing Indianapolis Center
05:43PM 39.5197 -85.5292 360° North 384 442 27,000  Level Indianapolis Center
05:44PM 39.6275 -85.5303 360° North 389 448 27,000  Level Indianapolis Center
05:45PM 39.7433 -85.5292 360° North 412 474 27,000  Level Indianapolis Center
05:46PM 39.8633 -85.5294 360° North 431 496 27,000  Level Indianapolis Center
05:47PM 39.9811 -85.5294 360° North 428 493 27,000 -1,020 Level Indianapolis Center
05:48PM 40.1242 -85.5289 360° North 431 496 25,000 -1,020 Descending Indianapolis Center
05:49PM 40.2406 -85.5286 360° North 426 490 25,000  Level Indianapolis Center
05:50PM 40.3553 -85.5275 360° North 419 482 25,000  Level Indianapolis Center
05:51PM 40.4464 -85.5261 North 414 476 25,000  Level Chicago Center
05:52PM 40.5633 -85.5258 360° North 420 483 25,000  Level Chicago Center
05:53PM 40.6742 -85.5275 359° North 416 479 25,000  Level Chicago Center
05:54PM 40.7908 -85.5275 360° North 419 482 25,000  Level Chicago Center
05:55PM 40.9314 -85.5269 360° North 421 484 25,000  Level Chicago Center
05:56PM 41.0481 -85.5261 360° North 421 484 25,000  Level Chicago Center
05:57PM 41.1667 -85.5269 360° North 424 488 25,000  Level Chicago Center
05:58PM 41.2839 -85.5264 360° North 421 484 25,000  Level Chicago Center
05:59PM 41.4017 -85.5261 360° North 421 484 25,000  Level Chicago Center
06:00PM 41.5200 -85.5272 360° North 420 483 25,000 -300 Level Chicago Center
06:01PM 41.6433 -85.5286 360° North 427 491 24,400 -480 Descending Chicago Center
06:02PM 41.7628 -85.5269 North 416 479 24,000 -1,080 Descending Chicago Center
06:03PM 41.8994 -85.5256 360° North 409 471 22,200 -1,920 Descending Chicago Center
06:04PM 42.0078 -85.5264 360° North 387 445 20,100 -1,920 Descending Chicago Center
06:05PM 42.0983 -85.5253 North 369 425 18,300 -1,920 Descending Chicago Center
06:06PM 42.2178 -85.5256 360° North 360 414 16,200 -2,040 Descending Chicago Center
06:07PM 42.3167 -85.5242 North 358 412 14,200 -1,980 Descending Chicago Center
06:08PM 42.3566 -85.5167 North  Level FlightAware Approximate
06:08PM 42.4156 -85.5242 360° North 357 411 12,200  Level Chicago Center
06:09PM 42.4975 -85.5692 338° Northwest 324 373 10,200 -2,040 Descending Chicago Center
06:10PM 42.5686 -85.6181 333° Northwest 295 339 8,000 -2,280 Descending Chicago Center
06:11PM 42.6339 -85.6658 332° Northwest 273 314 5,500 -2,160 Descending Chicago Center
06:12PM 42.7108 -85.7217 332° Northwest 264 304 3,600 -1,260 Descending Chicago Center
06:13PM 42.7733 -85.7697 331° Northwest 261 300 3,000 -540 Descending Chicago Center
06:14PM 42.8331 -85.7772 355° North 236 272 2,600 -300 Descending Chicago Center
06:15PM 42.8569 -85.7156 62° Northeast 204 235 2,500 -180 Descending Chicago Center
06:16PM 42.8786 -85.6653 60° Northeast 197 227 2,300 -60 Descending Chicago Center
06:17PM 42.9256 -85.6131 39° Northeast 188 216 2,400 -180 Climbing Chicago Center
06:18PM 42.9347 -85.5631 76° East 157 181 2,000 -480 Descending Chicago Center
06:19PM 42.9225 -85.5264 114° Southeast 130 150 1,500 -540 Descending Chicago Center
06:21PM 42.8953 -85.5194 169° South 113 130 900 -600 Descending Chicago Center